Portland, Oregon
Traffic Map
Current Weather Conditions
Portland, Oregon
Broken Clouds
Broken Clouds
64°
Feels Like: 64°
Wind Chill: 64° Ceiling: 3500
Heat Index: 64° Visibility: 10mi
Dew Point: 47° Wind: 3mph
Humidity: 54% Direction: ° ()
Pressure: 29.99in Gusts: 0mph
Raw Report DataKPDX 051953Z VRB03KT 10SM SCT025 BKN035 BKN250 18/08 A2999 RMK AO2 SLP154 T01780083
Traffic Incident Summary
Active as of:
Severity:
Category:
InformationThere was an issue retrieving the traffic information for this location. Please try a different location or try again shortly.
Advertisements
Track Severe Weather on mobile